createdAt,value
2018-05-11T00:01:37.281Z,16.18
2018-05-11T00:04:05.971Z,15.87
2018-05-11T00:06:34.584Z,15.54
2018-05-11T00:09:02.818Z,15.50
2018-05-11T00:11:31.388Z,15.27
2018-05-11T00:13:59.959Z,15.25
2018-05-11T00:16:28.506Z,15.14
2018-05-11T00:18:57.067Z,14.96
2018-05-11T00:21:25.622Z,14.97
2018-05-11T00:23:54.840Z,14.96
2018-05-11T00:26:25.022Z,14.98
2018-05-11T00:28:53.577Z,15.06
2018-05-11T00:31:22.165Z,15.15
2018-05-11T00:33:50.771Z,15.31
2018-05-11T00:36:19.335Z,15.35
2018-05-11T00:38:47.903Z,15.38
2018-05-11T00:41:16.463Z,15.41
2018-05-11T00:43:45.037Z,15.50
2018-05-11T00:46:13.605Z,15.55
2018-05-11T00:48:42.170Z,15.57
2018-05-11T00:51:10.875Z,15.62
2018-05-11T00:53:39.555Z,15.62
2018-05-11T00:56:07.885Z,15.74
2018-05-11T00:58:36.867Z,15.68
2018-05-11T01:01:05.117Z,15.63
2018-05-11T01:03:33.687Z,15.64
2018-05-11T01:06:02.499Z,15.73
2018-05-11T01:08:31.096Z,15.69
2018-05-11T01:10:59.667Z,15.62
2018-05-11T01:13:28.237Z,15.67
2018-05-11T01:15:57.020Z,15.69
2018-05-11T01:18:25.575Z,15.76
2018-05-11T01:20:54.184Z,15.80
2018-05-11T01:23:22.746Z,15.84
2018-05-11T01:25:51.369Z,15.86
2018-05-11T01:28:19.955Z,15.85
2018-05-11T01:30:48.520Z,15.87
2018-05-11T01:33:16.848Z,15.87
2018-05-11T01:35:45.420Z,15.82
2018-05-11T01:38:13.974Z,15.65
2018-05-11T01:40:42.533Z,15.62
2018-05-11T01:43:11.147Z,15.59
2018-05-11T01:45:39.995Z,15.67
2018-05-11T01:48:08.615Z,15.71
2018-05-11T01:50:37.195Z,15.68
2018-05-11T01:53:05.751Z,15.73
2018-05-11T01:55:34.316Z,15.70
2018-05-11T01:58:02.915Z,15.62
2018-05-11T02:00:31.524Z,15.62
2018-05-11T02:03:00.132Z,15.64
2018-05-11T02:05:28.707Z,15.64
2018-05-11T02:07:57.271Z,15.67
2018-05-11T02:10:25.907Z,15.65
2018-05-11T02:12:54.466Z,15.70
2018-05-11T02:15:23.037Z,15.74
2018-05-11T02:17:51.604Z,15.76
2018-05-11T02:20:20.206Z,15.69
2018-05-11T02:22:48.783Z,15.65
2018-05-11T02:25:17.365Z,15.64
2018-05-11T02:27:45.908Z,15.69
2018-05-11T02:30:14.546Z,15.71
2018-05-11T02:32:43.147Z,15.68
2018-05-11T02:35:11.741Z,15.70
2018-05-11T02:37:40.317Z,15.70
2018-05-11T02:40:08.875Z,15.78
2018-05-11T02:42:37.485Z,15.81
2018-05-11T02:45:06.067Z,15.76
2018-05-11T02:47:34.657Z,15.84
2018-05-11T02:50:03.299Z,15.77
2018-05-11T02:52:31.900Z,15.77
2018-05-11T02:55:00.550Z,15.81
2018-05-11T02:57:29.882Z,15.86
2018-05-11T02:59:58.502Z,15.83
2018-05-11T03:02:27.401Z,15.83
2018-05-11T03:04:56.014Z,15.83
2018-05-11T03:07:24.631Z,15.82
2018-05-11T03:09:53.251Z,15.76
2018-05-11T03:12:22.011Z,15.73
2018-05-11T03:14:50.570Z,15.76
2018-05-11T03:17:19.154Z,15.84
2018-05-11T03:19:49.847Z,15.87
2018-05-11T03:22:18.417Z,15.86
2018-05-11T03:24:46.985Z,15.85
2018-05-11T03:27:15.596Z,15.81
2018-05-11T03:29:44.149Z,15.81
2018-05-11T03:32:12.754Z,15.79
2018-05-11T03:34:41.315Z,15.81
2018-05-11T03:37:09.885Z,15.86
2018-05-11T03:39:38.453Z,15.88
2018-05-11T03:42:07.076Z,15.90
2018-05-11T03:44:35.667Z,15.90
2018-05-11T03:47:04.252Z,15.89
2018-05-11T03:49:32.899Z,15.91
2018-05-11T03:52:01.482Z,15.88
2018-05-11T03:54:30.124Z,15.88
2018-05-11T03:56:58.720Z,15.90
2018-05-11T03:59:27.662Z,15.97
2018-05-11T04:02:07.755Z,15.90
2018-05-11T04:04:47.393Z,15.91
2018-05-11T04:07:26.811Z,15.93
2018-05-11T04:09:56.799Z,15.96
2018-05-11T04:12:25.408Z,15.90
2018-05-11T04:14:53.976Z,15.89
2018-05-11T04:17:22.536Z,15.89
2018-05-11T04:19:51.098Z,15.94
2018-05-11T04:22:19.644Z,15.98
2018-05-11T04:24:48.225Z,16.02
2018-05-11T04:27:16.776Z,16.10
2018-05-11T04:29:45.388Z,16.21
2018-05-11T04:32:13.936Z,16.29
2018-05-11T04:34:42.519Z,16.28
2018-05-11T04:37:11.111Z,16.30
2018-05-11T04:39:39.856Z,16.33
2018-05-11T04:42:08.427Z,16.36
2018-05-11T04:44:37.177Z,16.48
2018-05-11T04:47:05.751Z,16.51
2018-05-11T04:49:34.353Z,16.62
2018-05-11T04:52:02.910Z,16.70
2018-05-11T04:54:31.470Z,16.77
2018-05-11T04:57:00.027Z,16.85
2018-05-11T04:59:28.614Z,16.90
2018-05-11T05:01:57.170Z,17.03
2018-05-11T05:04:25.767Z,17.07
2018-05-11T05:06:54.852Z,17.11
2018-05-11T05:09:23.408Z,17.05
2018-05-11T05:11:52.027Z,16.94
2018-05-11T05:14:21.029Z,16.80
2018-05-11T05:16:49.622Z,16.87
2018-05-11T05:19:17.983Z,16.74
2018-05-11T05:21:46.475Z,16.74
2018-05-11T05:24:15.028Z,16.70
2018-05-11T05:26:43.789Z,16.72
2018-05-11T05:29:13.729Z,16.82
2018-05-11T05:31:42.345Z,16.79
2018-05-11T05:34:10.899Z,16.70
2018-05-11T05:36:39.464Z,16.66
2018-05-11T05:39:08.265Z,16.86
2018-05-11T05:41:37.118Z,16.92
2018-05-11T05:44:05.702Z,17.00
2018-05-11T05:46:34.255Z,17.12
2018-05-11T05:49:02.812Z,17.25
2018-05-11T05:51:31.389Z,17.41
2018-05-11T05:54:01.193Z,17.58
2018-05-11T05:56:29.761Z,17.65
2018-05-11T05:58:58.367Z,17.61
2018-05-11T06:01:26.949Z,17.68
2018-05-11T06:03:55.519Z,17.71
2018-05-11T06:06:24.084Z,17.68
2018-05-11T06:08:52.643Z,17.62
2018-05-11T06:11:21.279Z,17.62
2018-05-11T06:13:52.604Z,17.63
2018-05-11T06:16:22.668Z,17.54
2018-05-11T06:18:51.262Z,17.58
2018-05-11T06:21:24.935Z,17.52
2018-05-11T06:23:53.856Z,17.35
2018-05-11T06:26:22.440Z,17.14
2018-05-11T06:28:52.020Z,17.17
2018-05-11T06:31:20.582Z,17.17
2018-05-11T06:33:49.152Z,17.14
2018-05-11T06:36:17.770Z,17.24
2018-05-11T06:38:46.329Z,17.28
2018-05-11T06:41:14.947Z,17.30
2018-05-11T06:43:43.553Z,17.47
2018-05-11T06:46:12.252Z,17.54
2018-05-11T06:48:41.017Z,17.34
2018-05-11T06:51:10.343Z,17.45
2018-05-11T06:53:38.903Z,17.23
2018-05-11T06:56:07.540Z,17.16
2018-05-11T06:58:36.150Z,17.21
2018-05-11T07:01:04.757Z,17.22
2018-05-11T07:03:33.320Z,17.23
2018-05-11T07:06:01.912Z,17.24
2018-05-11T07:08:30.537Z,17.27
2018-05-11T07:10:59.093Z,17.25
2018-05-11T07:13:27.698Z,17.25
2018-05-11T07:15:56.400Z,17.24
2018-05-11T07:18:24.958Z,17.34
2018-05-11T07:20:53.552Z,17.41
2018-05-11T07:23:22.171Z,17.59
2018-05-11T07:25:50.765Z,17.71
2018-05-11T07:28:19.577Z,17.86
2018-05-11T07:30:48.151Z,18.10
2018-05-11T07:33:16.751Z,18.32
2018-05-11T07:35:45.318Z,18.52
2018-05-11T07:38:13.953Z,18.77
2018-05-11T07:40:42.525Z,18.93
2018-05-11T07:43:11.213Z,18.94
2018-05-11T07:45:39.891Z,18.98
2018-05-11T07:48:08.163Z,19.19
2018-05-11T07:50:36.784Z,19.18
2018-05-11T07:53:05.355Z,19.06
2018-05-11T07:55:33.918Z,19.14
2018-05-11T07:58:02.491Z,19.21
2018-05-11T08:00:31.067Z,19.37
2018-05-11T08:02:59.656Z,19.29
2018-05-11T08:05:28.218Z,19.31
2018-05-11T08:07:56.787Z,19.32
2018-05-11T08:10:25.384Z,19.26
2018-05-11T08:12:53.971Z,19.60
2018-05-11T08:15:22.527Z,19.67
2018-05-11T08:17:51.105Z,19.58
2018-05-11T08:20:19.655Z,19.84
2018-05-11T08:22:48.232Z,19.87
2018-05-11T08:25:16.849Z,19.84
2018-05-11T08:27:45.417Z,19.77
2018-05-11T08:30:14.028Z,19.79
2018-05-11T08:32:42.507Z,19.85
2018-05-11T08:35:11.105Z,20.03
2018-05-11T08:37:39.691Z,20.35
2018-05-11T08:40:08.251Z,20.41
2018-05-11T08:42:36.829Z,20.36
2018-05-11T08:45:05.391Z,20.51
2018-05-11T08:47:33.969Z,20.68
2018-05-11T08:50:02.545Z,20.71
2018-05-11T08:52:31.110Z,20.78
2018-05-11T08:54:59.671Z,20.80
2018-05-11T08:57:28.264Z,20.73
2018-05-11T08:59:56.819Z,20.95
2018-05-11T09:02:25.375Z,20.70
2018-05-11T09:04:54.003Z,20.63
2018-05-11T09:07:22.593Z,20.60
2018-05-11T09:09:51.191Z,20.61
2018-05-11T09:12:19.801Z,20.80
2018-05-11T09:14:48.352Z,20.94
2018-05-11T09:17:16.927Z,20.73
2018-05-11T09:19:45.541Z,20.86
2018-05-11T09:22:14.156Z,20.96
2018-05-11T09:24:42.727Z,20.91
2018-05-11T09:27:11.299Z,20.84
2018-05-11T09:29:39.873Z,21.05
2018-05-11T09:32:08.450Z,21.19
2018-05-11T09:34:37.205Z,21.28
2018-05-11T09:37:05.811Z,20.92
2018-05-11T09:39:34.515Z,21.09
2018-05-11T09:42:03.223Z,21.20
2018-05-11T09:44:31.789Z,21.51
2018-05-11T09:47:00.381Z,21.24
2018-05-11T09:49:29.030Z,20.57
2018-05-11T09:51:57.796Z,20.35
2018-05-11T09:54:26.372Z,20.33
2018-05-11T09:56:56.248Z,20.30
2018-05-11T09:59:24.840Z,20.28
2018-05-11T10:01:53.514Z,20.51
2018-05-11T10:04:21.999Z,20.48
2018-05-11T10:06:50.221Z,20.38
2018-05-11T10:09:18.843Z,20.26
2018-05-11T10:11:47.417Z,20.36
2018-05-11T10:14:16.009Z,20.44
2018-05-11T10:16:44.584Z,20.41
2018-05-11T10:19:13.165Z,20.46
2018-05-11T10:21:41.723Z,20.68
2018-05-11T10:24:10.287Z,20.74
2018-05-11T10:26:38.840Z,20.94
2018-05-11T10:29:07.409Z,21.15
2018-05-11T10:31:35.751Z,21.19
2018-05-11T10:34:04.107Z,21.37
2018-05-11T10:36:32.670Z,21.74
2018-05-11T10:39:01.307Z,21.86
2018-05-11T10:41:29.901Z,21.78
2018-05-11T10:43:58.470Z,21.77
2018-05-11T10:46:27.044Z,22.12
2018-05-11T10:48:55.668Z,22.14
2018-05-11T10:51:24.443Z,21.95
2018-05-11T10:53:53.016Z,21.80
2018-05-11T10:56:21.583Z,21.88
2018-05-11T10:58:50.158Z,21.88
2018-05-11T11:01:18.747Z,22.16
2018-05-11T11:03:47.311Z,22.35
2018-05-11T11:06:15.926Z,22.30
2018-05-11T11:08:44.485Z,22.05
2018-05-11T11:11:13.054Z,21.88
2018-05-11T11:13:41.752Z,21.70
2018-05-11T11:16:10.399Z,21.54
2018-05-11T11:18:38.954Z,21.47
2018-05-11T11:21:07.304Z,21.41
2018-05-11T11:23:35.854Z,21.53
2018-05-11T11:26:04.441Z,21.56
2018-05-11T11:28:33.253Z,21.52
2018-05-11T11:31:01.911Z,21.60
2018-05-11T11:33:30.557Z,21.65
2018-05-11T11:35:59.120Z,21.56
2018-05-11T11:38:27.768Z,21.65
2018-05-11T11:40:56.192Z,21.73
2018-05-11T11:43:24.763Z,21.67
2018-05-11T11:45:53.354Z,21.76
2018-05-11T11:48:21.916Z,21.80
2018-05-11T11:50:50.497Z,22.09
2018-05-11T11:53:19.057Z,22.20
2018-05-11T11:55:47.691Z,22.04
2018-05-11T11:58:16.278Z,22.21
2018-05-11T12:00:44.896Z,22.67
2018-05-11T12:03:13.453Z,23.15
2018-05-11T12:05:42.035Z,23.33
2018-05-11T12:08:10.594Z,22.95
2018-05-11T12:10:39.139Z,22.67
2018-05-11T12:13:07.837Z,21.93
2018-05-11T12:15:36.418Z,21.36
2018-05-11T12:18:05.037Z,20.60
2018-05-11T12:20:33.595Z,20.12
2018-05-11T12:23:02.200Z,19.64
2018-05-11T12:25:30.769Z,19.24
2018-05-11T12:27:59.335Z,19.03
2018-05-11T12:30:27.931Z,18.64
2018-05-11T12:32:56.510Z,18.25
2018-05-11T12:35:25.066Z,17.80
2018-05-11T12:37:53.636Z,17.27
2018-05-11T12:40:22.219Z,16.74
2018-05-11T12:42:50.771Z,16.58
2018-05-11T12:45:19.340Z,16.38
2018-05-11T12:47:47.940Z,16.18
2018-05-11T12:50:16.523Z,15.95
2018-05-11T12:52:45.187Z,15.80
2018-05-11T12:55:13.901Z,15.73
2018-05-11T12:57:42.499Z,15.82
2018-05-11T13:00:11.101Z,15.87
2018-05-11T13:02:39.712Z,16.04
2018-05-11T13:05:08.277Z,16.28
2018-05-11T13:07:36.851Z,16.38
2018-05-11T13:10:05.069Z,16.36
2018-05-11T13:12:33.632Z,16.36
2018-05-11T13:15:02.276Z,16.54
2018-05-11T13:17:30.969Z,16.53
2018-05-11T13:19:59.530Z,16.64
2018-05-11T13:22:28.099Z,16.59
2018-05-11T13:24:56.340Z,16.57
2018-05-11T13:27:24.979Z,16.65
2018-05-11T13:29:53.534Z,16.68
2018-05-11T13:32:22.227Z,16.77
2018-05-11T13:34:50.840Z,16.86
2018-05-11T13:37:19.406Z,17.09
2018-05-11T13:39:47.978Z,17.29
2018-05-11T13:42:16.535Z,17.24
2018-05-11T13:44:45.131Z,17.35
2018-05-11T13:47:13.742Z,17.53
2018-05-11T13:49:42.389Z,17.62
2018-05-11T13:52:11.009Z,17.63
2018-05-11T13:54:39.562Z,17.38
2018-05-11T13:57:08.170Z,17.18
2018-05-11T13:59:36.723Z,17.16
2018-05-11T14:02:05.339Z,17.27
2018-05-11T14:04:33.910Z,17.44
2018-05-11T14:07:02.721Z,17.52
2018-05-11T14:09:31.316Z,17.64
2018-05-11T14:11:59.869Z,17.71
2018-05-11T14:14:28.935Z,17.35
2018-05-11T14:16:57.508Z,17.44
2018-05-11T14:19:26.101Z,17.58
2018-05-11T14:21:54.688Z,17.57
2018-05-11T14:24:23.283Z,17.53
2018-05-11T14:26:52.071Z,17.56
2018-05-11T14:29:20.773Z,17.42
2018-05-11T14:31:49.427Z,17.32
2018-05-11T14:34:17.946Z,17.28
2018-05-11T14:36:46.225Z,16.89
2018-05-11T14:39:14.829Z,16.94
2018-05-11T14:41:43.765Z,16.97
2018-05-11T14:44:12.142Z,17.09
2018-05-11T14:46:40.730Z,17.30
2018-05-11T14:49:09.316Z,17.52
2018-05-11T14:51:37.990Z,17.79
2018-05-11T14:54:06.562Z,17.96
2018-05-11T14:56:36.444Z,17.99
2018-05-11T14:59:05.011Z,18.11
2018-05-11T15:01:35.239Z,18.18
2018-05-11T15:04:03.825Z,18.18
2018-05-11T15:06:32.419Z,18.14
2018-05-11T15:09:00.762Z,18.08
2018-05-11T15:11:29.375Z,18.09
2018-05-11T15:13:57.978Z,18.00
2018-05-11T15:16:26.547Z,17.98
2018-05-11T15:18:55.147Z,18.00
2018-05-11T15:21:23.704Z,18.03
2018-05-11T15:23:52.589Z,18.12
2018-05-11T15:26:21.414Z,18.07
2018-05-11T15:28:49.974Z,17.92
2018-05-11T15:31:18.639Z,17.84
2018-05-11T15:33:48.178Z,17.80
2018-05-11T15:36:16.744Z,17.73
2018-05-11T15:38:45.309Z,17.72
2018-05-11T15:41:14.350Z,17.73
2018-05-11T15:43:42.932Z,17.86
2018-05-11T15:46:11.487Z,17.64
2018-05-11T15:48:40.063Z,17.63
2018-05-11T15:51:08.672Z,17.83
2018-05-11T15:53:37.258Z,17.90
2018-05-11T15:56:05.816Z,17.91
2018-05-11T15:58:34.404Z,18.00
2018-05-11T16:01:02.977Z,18.15
2018-05-11T16:03:31.544Z,18.22
2018-05-11T16:06:00.236Z,18.29
2018-05-11T16:08:28.904Z,18.36
2018-05-11T16:10:57.478Z,18.30
2018-05-11T16:13:26.031Z,18.29
2018-05-11T16:15:54.597Z,18.31
2018-05-11T16:18:23.147Z,18.24
2018-05-11T16:20:51.605Z,18.34
2018-05-11T16:23:20.376Z,18.44
2018-05-11T16:25:48.971Z,18.57
2018-05-11T16:28:17.577Z,18.56
2018-05-11T16:30:46.382Z,18.53
2018-05-11T16:33:14.962Z,18.54
2018-05-11T16:35:43.532Z,18.47
2018-05-11T16:38:12.088Z,18.39
2018-05-11T16:40:40.657Z,18.28
2018-05-11T16:43:09.235Z,18.27
2018-05-11T16:45:37.847Z,18.30
2018-05-11T16:48:06.405Z,18.30
2018-05-11T16:50:34.980Z,18.39
2018-05-11T16:53:03.319Z,18.46
2018-05-11T16:55:31.940Z,18.52
2018-05-11T16:58:00.613Z,18.55
2018-05-11T17:00:29.254Z,18.55
2018-05-11T17:02:57.869Z,18.56
2018-05-11T17:05:26.431Z,18.41
2018-05-11T17:07:54.997Z,18.16
2018-05-11T17:10:23.679Z,17.97
2018-05-11T17:12:52.372Z,17.89
2018-05-11T17:15:20.935Z,17.83
2018-05-11T17:17:49.496Z,17.81
2018-05-11T17:20:18.127Z,17.76
2018-05-11T17:22:46.760Z,17.65
2018-05-11T17:25:15.492Z,17.62
2018-05-11T17:27:44.050Z,17.54
2018-05-11T17:30:16.619Z,17.49
2018-05-11T17:32:44.948Z,17.41
2018-05-11T17:35:13.505Z,17.34
2018-05-11T17:37:42.067Z,17.26
2018-05-11T17:40:10.665Z,17.18
2018-05-11T17:42:39.307Z,17.12
2018-05-11T17:45:07.907Z,17.08
2018-05-11T17:47:36.246Z,16.96
2018-05-11T17:50:04.166Z,16.93
2018-05-11T17:52:32.734Z,16.87
2018-05-11T17:55:01.348Z,16.87
2018-05-11T17:57:29.915Z,16.90
2018-05-11T17:59:58.475Z,16.88
2018-05-11T18:02:27.030Z,16.82
2018-05-11T18:04:55.608Z,16.73
2018-05-11T18:07:24.211Z,16.67
2018-05-11T18:09:52.473Z,16.65
2018-05-11T18:12:21.144Z,16.62
2018-05-11T18:14:50.076Z,16.59
2018-05-11T18:17:18.669Z,16.55
2018-05-11T18:19:47.652Z,16.53
2018-05-11T18:22:16.255Z,16.54
2018-05-11T18:24:44.806Z,16.54
2018-05-11T18:27:13.409Z,16.52
2018-05-11T18:29:41.995Z,16.51
2018-05-11T18:32:10.596Z,16.29
2018-05-11T18:34:39.191Z,16.31
2018-05-11T18:37:08.235Z,16.33
2018-05-11T18:39:36.886Z,16.36
2018-05-11T18:42:05.793Z,16.34
2018-05-11T18:44:34.766Z,16.35
2018-05-11T18:47:03.196Z,16.33
2018-05-11T18:49:31.997Z,16.26
2018-05-11T18:52:00.356Z,16.26
2018-05-11T18:54:29.275Z,16.21
2018-05-11T18:56:57.721Z,16.16
2018-05-11T18:59:26.324Z,16.14
2018-05-11T19:01:54.892Z,16.12
2018-05-11T19:04:23.459Z,16.09
2018-05-11T19:06:52.323Z,16.04
2018-05-11T19:09:20.896Z,16.01
2018-05-11T19:11:49.530Z,15.98
2018-05-11T19:14:18.116Z,15.95
2018-05-11T19:16:46.729Z,15.89
2018-05-11T19:19:15.344Z,15.78
2018-05-11T19:21:43.904Z,15.79
